sensor_id;sensor_type;location;lat;lon;timestamp;temperature;humidity
8178;DHT22;4130;48.740;9.132;2023-02-18T00:00:15;11.10;99.90
8178;DHT22;4130;48.740;9.132;2023-02-18T00:02:42;11.10;99.90
8178;DHT22;4130;48.740;9.132;2023-02-18T00:05:12;11.00;99.90
8178;DHT22;4130;48.740;9.132;2023-02-18T00:07:39;11.00;99.90
8178;DHT22;4130;48.740;9.132;2023-02-18T00:10:09;11.00;99.90
8178;DHT22;4130;48.740;9.132;2023-02-18T00:12:36;10.90;99.90
8178;DHT22;4130;48.740;9.132;2023-02-18T00:15:03;10.90;99.90
8178;DHT22;4130;48.740;9.132;2023-02-18T00:17:31;10.80;99.90
8178;DHT22;4130;48.740;9.132;2023-02-18T00:19:58;10.90;99.90
8178;DHT22;4130;48.740;9.132;2023-02-18T00:22:28;10.90;99.90
8178;DHT22;4130;48.740;9.132;2023-02-18T00:24:55;10.90;99.90
8178;DHT22;4130;48.740;9.132;2023-02-18T00:27:22;10.90;99.90
8178;DHT22;4130;48.740;9.132;2023-02-18T00:29:49;10.80;99.90
8178;DHT22;4130;48.740;9.132;2023-02-18T00:32:15;10.80;99.90
8178;DHT22;4130;48.740;9.132;2023-02-18T00:34:42;10.80;99.90
8178;DHT22;4130;48.740;9.132;2023-02-18T00:37:09;10.80;99.90
8178;DHT22;4130;48.740;9.132;2023-02-18T00:39:37;10.80;99.90
8178;DHT22;4130;48.740;9.132;2023-02-18T00:42:04;10.80;99.90
8178;DHT22;4130;48.740;9.132;2023-02-18T00:44:31;10.80;99.90
8178;DHT22;4130;48.740;9.132;2023-02-18T00:46:58;10.90;99.90
8178;DHT22;4130;48.740;9.132;2023-02-18T00:49:25;10.80;99.90
8178;DHT22;4130;48.740;9.132;2023-02-18T00:51:52;10.80;99.90
8178;DHT22;4130;48.740;9.132;2023-02-18T00:54:19;10.80;99.90
8178;DHT22;4130;48.740;9.132;2023-02-18T00:56:50;10.80;99.90
8178;DHT22;4130;48.740;9.132;2023-02-18T00:59:18;10.80;99.90
8178;DHT22;4130;48.740;9.132;2023-02-18T01:01:54;10.80;99.90
8178;DHT22;4130;48.740;9.132;2023-02-18T01:04:21;10.80;99.90
8178;DHT22;4130;48.740;9.132;2023-02-18T01:06:48;11.40;99.90
8178;DHT22;4130;48.740;9.132;2023-02-18T01:09:14;10.80;99.90
8178;DHT22;4130;48.740;9.132;2023-02-18T01:11:41;10.80;99.90
8178;DHT22;4130;48.740;9.132;2023-02-18T01:14:09;10.70;99.90
8178;DHT22;4130;48.740;9.132;2023-02-18T01:16:36;10.70;99.90
8178;DHT22;4130;48.740;9.132;2023-02-18T01:19:03;10.70;99.90
8178;DHT22;4130;48.740;9.132;2023-02-18T01:21:29;10.60;99.90
8178;DHT22;4130;48.740;9.132;2023-02-18T01:23:56;10.60;99.90
8178;DHT22;4130;48.740;9.132;2023-02-18T01:26:23;10.60;99.90
8178;DHT22;4130;48.740;9.132;2023-02-18T01:28:50;10.50;99.90
8178;DHT22;4130;48.740;9.132;2023-02-18T01:31:18;10.70;99.90
8178;DHT22;4130;48.740;9.132;2023-02-18T01:33:45;10.50;99.90
8178;DHT22;4130;48.740;9.132;2023-02-18T01:36:12;10.60;99.90
8178;DHT22;4130;48.740;9.132;2023-02-18T01:38:39;10.60;99.90
8178;DHT22;4130;48.740;9.132;2023-02-18T01:41:06;10.50;99.90
8178;DHT22;4130;48.740;9.132;2023-02-18T01:43:33;10.80;99.90
8178;DHT22;4130;48.740;9.132;2023-02-18T01:46:20;10.40;99.90
8178;DHT22;4130;48.740;9.132;2023-02-18T01:48:49;10.30;99.90
8178;DHT22;4130;48.740;9.132;2023-02-18T01:51:21;10.30;99.90
8178;DHT22;4130;48.740;9.132;2023-02-18T01:53:52;10.20;99.90
8178;DHT22;4130;48.740;9.132;2023-02-18T01:56:25;10.10;99.90
8178;DHT22;4130;48.740;9.132;2023-02-18T01:58:54;10.10;99.90
8178;DHT22;4130;48.740;9.132;2023-02-18T02:01:25;10.10;99.90
8178;DHT22;4130;48.740;9.132;2023-02-18T02:03:52;10.00;99.90
8178;DHT22;4130;48.740;9.132;2023-02-18T02:06:20;9.90;99.90
8178;DHT22;4130;48.740;9.132;2023-02-18T02:08:50;9.80;99.90
8178;DHT22;4130;48.740;9.132;2023-02-18T02:14:15;9.70;99.90
8178;DHT22;4130;48.740;9.132;2023-02-18T02:16:54;9.70;99.90
8178;DHT22;4130;48.740;9.132;2023-02-18T02:19:46;9.60;99.90
8178;DHT22;4130;48.740;9.132;2023-02-18T02:25:25;9.50;99.90
8178;DHT22;4130;48.740;9.132;2023-02-18T02:28:27;9.50;99.90
8178;DHT22;4130;48.740;9.132;2023-02-18T02:31:20;9.60;99.90
8178;DHT22;4130;48.740;9.132;2023-02-18T02:34:28;9.60;99.90
8178;DHT22;4130;48.740;9.132;2023-02-18T02:37:02;9.60;99.90
8178;DHT22;4130;48.740;9.132;2023-02-18T02:39:33;9.60;99.90
8178;DHT22;4130;48.740;9.132;2023-02-18T02:42:06;9.50;99.90
8178;DHT22;4130;48.740;9.132;2023-02-18T02:44:38;9.50;99.90
8178;DHT22;4130;48.740;9.132;2023-02-18T02:47:13;9.50;99.90
8178;DHT22;4130;48.740;9.132;2023-02-18T02:49:48;9.60;99.90
8178;DHT22;4130;48.740;9.132;2023-02-18T02:52:22;9.70;99.90
8178;DHT22;4130;48.740;9.132;2023-02-18T02:54:49;9.80;99.90
8178;DHT22;4130;48.740;9.132;2023-02-18T02:57:46;9.90;99.90
8178;DHT22;4130;48.740;9.132;2023-02-18T03:00:16;10.00;99.90
8178;DHT22;4130;48.740;9.132;2023-02-18T03:02:58;10.10;99.90
8178;DHT22;4130;48.740;9.132;2023-02-18T03:05:38;10.20;99.90
8178;DHT22;4130;48.740;9.132;2023-02-18T03:08:21;10.10;99.90
8178;DHT22;4130;48.740;9.132;2023-02-18T03:10:55;10.20;99.90
8178;DHT22;4130;48.740;9.132;2023-02-18T03:13:36;10.20;99.90
8178;DHT22;4130;48.740;9.132;2023-02-18T03:16:13;10.10;99.90
8178;DHT22;4130;48.740;9.132;2023-02-18T03:18:44;10.10;99.90
8178;DHT22;4130;48.740;9.132;2023-02-18T03:21:17;10.00;99.90
8178;DHT22;4130;48.740;9.132;2023-02-18T03:23:48;10.00;99.90
8178;DHT22;4130;48.740;9.132;2023-02-18T03:26:17;9.90;99.90
8178;DHT22;4130;48.740;9.132;2023-02-18T03:28:47;9.90;99.90
8178;DHT22;4130;48.740;9.132;2023-02-18T03:31:16;9.70;99.90
8178;DHT22;4130;48.740;9.132;2023-02-18T03:33:48;9.60;99.90
8178;DHT22;4130;48.740;9.132;2023-02-18T03:36:18;9.50;99.90
8178;DHT22;4130;48.740;9.132;2023-02-18T03:38:50;9.40;99.90
8178;DHT22;4130;48.740;9.132;2023-02-18T03:41:19;9.40;99.90
8178;DHT22;4130;48.740;9.132;2023-02-18T03:43:49;9.30;99.90
8178;DHT22;4130;48.740;9.132;2023-02-18T03:46:16;9.20;99.90
8178;DHT22;4130;48.740;9.132;2023-02-18T03:48:43;9.10;99.90
8178;DHT22;4130;48.740;9.132;2023-02-18T03:51:10;9.00;99.90
8178;DHT22;4130;48.740;9.132;2023-02-18T03:53:38;8.90;99.90
8178;DHT22;4130;48.740;9.132;2023-02-18T03:56:05;8.70;99.90
8178;DHT22;4130;48.740;9.132;2023-02-18T03:58:32;8.70;99.90
8178;DHT22;4130;48.740;9.132;2023-02-18T04:00:59;9.00;99.90
8178;DHT22;4130;48.740;9.132;2023-02-18T04:03:26;8.70;99.90
8178;DHT22;4130;48.740;9.132;2023-02-18T04:05:52;8.90;99.90
8178;DHT22;4130;48.740;9.132;2023-02-18T04:08:19;9.00;99.90
8178;DHT22;4130;48.740;9.132;2023-02-18T04:10:47;9.10;99.90
8178;DHT22;4130;48.740;9.132;2023-02-18T04:13:14;9.20;99.90
8178;DHT22;4130;48.740;9.132;2023-02-18T04:15:42;9.20;99.90
8178;DHT22;4130;48.740;9.132;2023-02-18T04:18:09;9.30;99.90
8178;DHT22;4130;48.740;9.132;2023-02-18T04:20:36;9.30;99.90
8178;DHT22;4130;48.740;9.132;2023-02-18T04:23:03;9.20;99.90
8178;DHT22;4130;48.740;9.132;2023-02-18T04:25:30;9.20;99.90
8178;DHT22;4130;48.740;9.132;2023-02-18T04:27:58;9.70;99.90
8178;DHT22;4130;48.740;9.132;2023-02-18T04:30:25;9.10;99.90
8178;DHT22;4130;48.740;9.132;2023-02-18T04:32:53;9.00;99.90
8178;DHT22;4130;48.740;9.132;2023-02-18T04:35:19;8.90;99.90
8178;DHT22;4130;48.740;9.132;2023-02-18T04:37:46;8.80;99.90
8178;DHT22;4130;48.740;9.132;2023-02-18T04:40:13;8.70;99.90
8178;DHT22;4130;48.740;9.132;2023-02-18T04:42:40;8.70;99.90
8178;DHT22;4130;48.740;9.132;2023-02-18T04:45:08;8.80;99.90
8178;DHT22;4130;48.740;9.132;2023-02-18T04:47:35;8.80;99.90
8178;DHT22;4130;48.740;9.132;2023-02-18T04:50:06;8.80;99.90
8178;DHT22;4130;48.740;9.132;2023-02-18T04:52:33;8.90;99.90
8178;DHT22;4130;48.740;9.132;2023-02-18T04:55:00;8.90;99.90
8178;DHT22;4130;48.740;9.132;2023-02-18T04:57:26;8.90;99.90
8178;DHT22;4130;48.740;9.132;2023-02-18T04:59:53;8.90;99.90
8178;DHT22;4130;48.740;9.132;2023-02-18T05:02:21;8.80;99.90
8178;DHT22;4130;48.740;9.132;2023-02-18T05:04:48;8.80;99.90
8178;DHT22;4130;48.740;9.132;2023-02-18T05:07:17;8.80;99.90
8178;DHT22;4130;48.740;9.132;2023-02-18T05:09:44;8.80;99.90
8178;DHT22;4130;48.740;9.132;2023-02-18T05:12:10;8.80;99.90
8178;DHT22;4130;48.740;9.132;2023-02-18T05:14:37;8.70;99.90
8178;DHT22;4130;48.740;9.132;2023-02-18T05:17:04;8.70;99.90
8178;DHT22;4130;48.740;9.132;2023-02-18T05:19:32;8.70;99.90
8178;DHT22;4130;48.740;9.132;2023-02-18T05:21:59;8.60;99.90
8178;DHT22;4130;48.740;9.132;2023-02-18T05:24:25;8.60;99.90
8178;DHT22;4130;48.740;9.132;2023-02-18T05:26:52;8.50;99.90
8178;DHT22;4130;48.740;9.132;2023-02-18T05:29:19;8.50;99.90
8178;DHT22;4130;48.740;9.132;2023-02-18T05:31:45;8.50;99.90
8178;DHT22;4130;48.740;9.132;2023-02-18T05:34:12;8.50;99.90
8178;DHT22;4130;48.740;9.132;2023-02-18T05:36:40;8.50;99.90
8178;DHT22;4130;48.740;9.132;2023-02-18T05:39:07;8.40;99.90
8178;DHT22;4130;48.740;9.132;2023-02-18T05:41:34;8.40;99.90
8178;DHT22;4130;48.740;9.132;2023-02-18T05:44:01;8.50;99.90
8178;DHT22;4130;48.740;9.132;2023-02-18T05:46:45;8.60;99.90
8178;DHT22;4130;48.740;9.132;2023-02-18T05:49:12;8.60;99.90
8178;DHT22;4130;48.740;9.132;2023-02-18T05:51:38;8.70;99.90
8178;DHT22;4130;48.740;9.132;2023-02-18T05:54:06;8.80;99.90
8178;DHT22;4130;48.740;9.132;2023-02-18T05:56:33;9.00;99.90
8178;DHT22;4130;48.740;9.132;2023-02-18T05:59:00;9.00;99.90
8178;DHT22;4130;48.740;9.132;2023-02-18T06:01:27;9.10;99.90
8178;DHT22;4130;48.740;9.132;2023-02-18T06:03:53;9.20;99.90
8178;DHT22;4130;48.740;9.132;2023-02-18T06:06:20;9.20;99.90
8178;DHT22;4130;48.740;9.132;2023-02-18T06:08:47;9.20;99.90
8178;DHT22;4130;48.740;9.132;2023-02-18T06:11:15;9.20;99.90
8178;DHT22;4130;48.740;9.132;2023-02-18T06:13:42;9.50;99.90
8178;DHT22;4130;48.740;9.132;2023-02-18T06:16:12;9.20;99.90
8178;DHT22;4130;48.740;9.132;2023-02-18T06:18:46;9.30;99.90
8178;DHT22;4130;48.740;9.132;2023-02-18T06:21:12;9.30;99.90
8178;DHT22;4130;48.740;9.132;2023-02-18T06:23:39;9.30;99.90
8178;DHT22;4130;48.740;9.132;2023-02-18T06:26:06;9.30;99.90
8178;DHT22;4130;48.740;9.132;2023-02-18T06:28:34;9.30;99.90
8178;DHT22;4130;48.740;9.132;2023-02-18T06:31:01;9.60;99.90
8178;DHT22;4130;48.740;9.132;2023-02-18T06:33:28;9.50;99.90
8178;DHT22;4130;48.740;9.132;2023-02-18T06:35:56;9.50;99.90
8178;DHT22;4130;48.740;9.132;2023-02-18T06:38:23;9.50;99.90
8178;DHT22;4130;48.740;9.132;2023-02-18T06:40:50;9.60;99.90
8178;DHT22;4130;48.740;9.132;2023-02-18T06:43:17;9.70;99.90
8178;DHT22;4130;48.740;9.132;2023-02-18T06:45:46;9.70;99.90
8178;DHT22;4130;48.740;9.132;2023-02-18T06:48:13;9.80;99.90
8178;DHT22;4130;48.740;9.132;2023-02-18T06:50:42;9.80;99.90
8178;DHT22;4130;48.740;9.132;2023-02-18T06:53:09;10.00;99.90
8178;DHT22;4130;48.740;9.132;2023-02-18T06:55:36;9.90;99.90
8178;DHT22;4130;48.740;9.132;2023-02-18T06:58:03;9.90;99.90
8178;DHT22;4130;48.740;9.132;2023-02-18T07:00:30;10.00;99.90
8178;DHT22;4130;48.740;9.132;2023-02-18T07:02:58;10.00;99.90
8178;DHT22;4130;48.740;9.132;2023-02-18T07:05:25;10.20;99.90
8178;DHT22;4130;48.740;9.132;2023-02-18T07:07:52;10.00;99.90
8178;DHT22;4130;48.740;9.132;2023-02-18T07:10:19;10.00;99.90
8178;DHT22;4130;48.740;9.132;2023-02-18T07:12:46;10.20;99.90
8178;DHT22;4130;48.740;9.132;2023-02-18T07:15:12;10.30;99.90
8178;DHT22;4130;48.740;9.132;2023-02-18T07:17:39;10.30;99.90
8178;DHT22;4130;48.740;9.132;2023-02-18T07:20:08;10.30;99.90
8178;DHT22;4130;48.740;9.132;2023-02-18T07:22:35;10.40;99.90
8178;DHT22;4130;48.740;9.132;2023-02-18T07:25:02;10.50;99.90
8178;DHT22;4130;48.740;9.132;2023-02-18T07:27:29;10.50;99.90
8178;DHT22;4130;48.740;9.132;2023-02-18T07:29:55;10.60;99.90
8178;DHT22;4130;48.740;9.132;2023-02-18T07:32:22;10.60;99.90
8178;DHT22;4130;48.740;9.132;2023-02-18T07:34:51;10.60;99.90
8178;DHT22;4130;48.740;9.132;2023-02-18T07:37:19;10.70;99.90
8178;DHT22;4130;48.740;9.132;2023-02-18T07:39:46;10.70;99.90
8178;DHT22;4130;48.740;9.132;2023-02-18T07:42:13;10.70;99.90
8178;DHT22;4130;48.740;9.132;2023-02-18T07:44:40;10.70;99.90
8178;DHT22;4130;48.740;9.132;2023-02-18T07:47:09;10.70;99.90
8178;DHT22;4130;48.740;9.132;2023-02-18T07:49:39;10.80;99.90
8178;DHT22;4130;48.740;9.132;2023-02-18T07:52:06;10.80;99.90
8178;DHT22;4130;48.740;9.132;2023-02-18T07:54:34;10.80;99.90
8178;DHT22;4130;48.740;9.132;2023-02-18T07:57:00;10.90;99.90
8178;DHT22;4130;48.740;9.132;2023-02-18T07:59:27;11.00;99.90
8178;DHT22;4130;48.740;9.132;2023-02-18T08:01:54;11.10;99.90
8178;DHT22;4130;48.740;9.132;2023-02-18T08:04:21;11.10;99.90
8178;DHT22;4130;48.740;9.132;2023-02-18T08:06:48;11.10;99.90
8178;DHT22;4130;48.740;9.132;2023-02-18T08:09:16;11.20;99.90
8178;DHT22;4130;48.740;9.132;2023-02-18T08:11:44;11.20;99.90
8178;DHT22;4130;48.740;9.132;2023-02-18T08:14:11;11.30;99.90
8178;DHT22;4130;48.740;9.132;2023-02-18T08:16:38;11.30;99.90
8178;DHT22;4130;48.740;9.132;2023-02-18T08:19:05;11.30;99.90
8178;DHT22;4130;48.740;9.132;2023-02-18T08:21:32;11.30;99.90
8178;DHT22;4130;48.740;9.132;2023-02-18T08:23:59;11.30;99.90
8178;DHT22;4130;48.740;9.132;2023-02-18T08:26:26;11.50;99.90
8178;DHT22;4130;48.740;9.132;2023-02-18T08:28:54;11.30;99.90
8178;DHT22;4130;48.740;9.132;2023-02-18T08:31:23;11.50;99.90
8178;DHT22;4130;48.740;9.132;2023-02-18T08:33:50;11.40;99.90
8178;DHT22;4130;48.740;9.132;2023-02-18T08:36:17;11.50;99.90
8178;DHT22;4130;48.740;9.132;2023-02-18T08:38:44;11.50;99.90
8178;DHT22;4130;48.740;9.132;2023-02-18T08:41:11;11.60;99.90
8178;DHT22;4130;48.740;9.132;2023-02-18T08:43:38;11.70;99.90
8178;DHT22;4130;48.740;9.132;2023-02-18T08:46:07;11.70;99.90
8178;DHT22;4130;48.740;9.132;2023-02-18T08:48:33;11.80;99.90
8178;DHT22;4130;48.740;9.132;2023-02-18T08:51:10;11.90;99.90
8178;DHT22;4130;48.740;9.132;2023-02-18T08:53:37;12.10;99.90
8178;DHT22;4130;48.740;9.132;2023-02-18T08:56:05;12.10;99.90
8178;DHT22;4130;48.740;9.132;2023-02-18T08:58:33;12.20;99.90
8178;DHT22;4130;48.740;9.132;2023-02-18T09:01:02;12.30;99.90
8178;DHT22;4130;48.740;9.132;2023-02-18T09:03:31;12.60;99.90
8178;DHT22;4130;48.740;9.132;2023-02-18T09:05:58;12.30;99.90
8178;DHT22;4130;48.740;9.132;2023-02-18T09:08:25;12.30;99.90
8178;DHT22;4130;48.740;9.132;2023-02-18T09:10:54;12.30;99.90
8178;DHT22;4130;48.740;9.132;2023-02-18T09:13:22;12.40;99.90
8178;DHT22;4130;48.740;9.132;2023-02-18T09:15:55;12.40;99.90
8178;DHT22;4130;48.740;9.132;2023-02-18T09:18:22;12.50;99.90
8178;DHT22;4130;48.740;9.132;2023-02-18T09:20:51;12.60;99.90
8178;DHT22;4130;48.740;9.132;2023-02-18T09:23:18;12.70;99.90
8178;DHT22;4130;48.740;9.132;2023-02-18T09:25:45;12.70;99.90
8178;DHT22;4130;48.740;9.132;2023-02-18T09:28:12;12.60;99.90
8178;DHT22;4130;48.740;9.132;2023-02-18T09:30:39;12.70;99.90
8178;DHT22;4130;48.740;9.132;2023-02-18T09:33:06;12.80;99.90
8178;DHT22;4130;48.740;9.132;2023-02-18T09:35:32;12.90;99.90
8178;DHT22;4130;48.740;9.132;2023-02-18T09:38:00;13.00;99.90
8178;DHT22;4130;48.740;9.132;2023-02-18T09:40:29;13.00;99.90
8178;DHT22;4130;48.740;9.132;2023-02-18T09:42:58;13.00;99.90
8178;DHT22;4130;48.740;9.132;2023-02-18T09:45:26;12.90;99.90
8178;DHT22;4130;48.740;9.132;2023-02-18T09:47:54;12.90;99.90
8178;DHT22;4130;48.740;9.132;2023-02-18T09:50:25;12.90;99.90
8178;DHT22;4130;48.740;9.132;2023-02-18T09:52:52;12.90;99.90
8178;DHT22;4130;48.740;9.132;2023-02-18T09:55:23;12.80;99.90
8178;DHT22;4130;48.740;9.132;2023-02-18T09:57:52;12.90;99.90
8178;DHT22;4130;48.740;9.132;2023-02-18T10:00:24;13.00;99.90
8178;DHT22;4130;48.740;9.132;2023-02-18T10:02:56;13.00;99.90
8178;DHT22;4130;48.740;9.132;2023-02-18T10:05:25;13.10;99.90
8178;DHT22;4130;48.740;9.132;2023-02-18T10:07:54;13.10;99.90
8178;DHT22;4130;48.740;9.132;2023-02-18T10:10:33;13.10;99.90
8178;DHT22;4130;48.740;9.132;2023-02-18T10:13:02;13.10;99.90
8178;DHT22;4130;48.740;9.132;2023-02-18T10:15:30;13.00;99.90
8178;DHT22;4130;48.740;9.132;2023-02-18T10:17:58;13.10;99.90
8178;DHT22;4130;48.740;9.132;2023-02-18T10:20:27;13.00;99.90
8178;DHT22;4130;48.740;9.132;2023-02-18T10:22:57;12.90;99.90
8178;DHT22;4130;48.740;9.132;2023-02-18T10:25:26;13.00;99.90
8178;DHT22;4130;48.740;9.132;2023-02-18T10:27:54;12.90;99.90
8178;DHT22;4130;48.740;9.132;2023-02-18T10:30:26;12.90;99.90
8178;DHT22;4130;48.740;9.132;2023-02-18T10:32:55;12.80;99.90
8178;DHT22;4130;48.740;9.132;2023-02-18T10:35:32;13.10;99.90
8178;DHT22;4130;48.740;9.132;2023-02-18T10:38:06;13.10;99.90
8178;DHT22;4130;48.740;9.132;2023-02-18T10:40:45;13.20;99.90
8178;DHT22;4130;48.740;9.132;2023-02-18T10:43:23;13.20;99.90
8178;DHT22;4130;48.740;9.132;2023-02-18T10:45:55;13.20;99.90
8178;DHT22;4130;48.740;9.132;2023-02-18T10:48:38;13.30;99.90
8178;DHT22;4130;48.740;9.132;2023-02-18T10:51:18;13.30;99.90
8178;DHT22;4130;48.740;9.132;2023-02-18T10:53:49;13.30;99.90
8178;DHT22;4130;48.740;9.132;2023-02-18T10:56:36;13.30;99.90
8178;DHT22;4130;48.740;9.132;2023-02-18T10:59:10;13.40;99.90
8178;DHT22;4130;48.740;9.132;2023-02-18T11:01:38;13.50;99.90
8178;DHT22;4130;48.740;9.132;2023-02-18T11:04:12;13.60;99.90
8178;DHT22;4130;48.740;9.132;2023-02-18T11:06:40;13.60;99.90
8178;DHT22;4130;48.740;9.132;2023-02-18T11:09:33;13.70;99.90
8178;DHT22;4130;48.740;9.132;2023-02-18T11:12:13;13.70;99.90
8178;DHT22;4130;48.740;9.132;2023-02-18T11:14:45;13.70;99.90
8178;DHT22;4130;48.740;9.132;2023-02-18T11:17:17;13.60;99.90
8178;DHT22;4130;48.740;9.132;2023-02-18T11:19:52;13.60;99.90
8178;DHT22;4130;48.740;9.132;2023-02-18T11:22:22;13.60;99.90
8178;DHT22;4130;48.740;9.132;2023-02-18T11:24:56;13.60;99.90
8178;DHT22;4130;48.740;9.132;2023-02-18T11:27:27;13.50;99.90
8178;DHT22;4130;48.740;9.132;2023-02-18T11:30:00;13.60;99.90
8178;DHT22;4130;48.740;9.132;2023-02-18T11:32:28;13.60;99.90
8178;DHT22;4130;48.740;9.132;2023-02-18T11:34:56;13.60;99.90
8178;DHT22;4130;48.740;9.132;2023-02-18T11:37:23;13.60;99.90
8178;DHT22;4130;48.740;9.132;2023-02-18T11:39:53;13.60;99.90
8178;DHT22;4130;48.740;9.132;2023-02-18T11:42:22;13.60;99.90
8178;DHT22;4130;48.740;9.132;2023-02-18T11:44:53;13.70;99.90
8178;DHT22;4130;48.740;9.132;2023-02-18T11:47:25;13.70;99.90
8178;DHT22;4130;48.740;9.132;2023-02-18T11:50:03;13.80;99.90
8178;DHT22;4130;48.740;9.132;2023-02-18T11:52:40;13.80;99.90
8178;DHT22;4130;48.740;9.132;2023-02-18T11:55:14;13.90;99.90
8178;DHT22;4130;48.740;9.132;2023-02-18T11:57:44;13.80;99.90
8178;DHT22;4130;48.740;9.132;2023-02-18T12:00:22;13.80;99.90
8178;DHT22;4130;48.740;9.132;2023-02-18T12:02:50;13.90;99.90
8178;DHT22;4130;48.740;9.132;2023-02-18T12:07:41;14.00;99.90
8178;DHT22;4130;48.740;9.132;2023-02-18T12:10:33;14.10;99.90
8178;DHT22;4130;48.740;9.132;2023-02-18T12:13:06;14.30;99.90
8178;DHT22;4130;48.740;9.132;2023-02-18T12:15:53;14.40;99.90
8178;DHT22;4130;48.740;9.132;2023-02-18T12:18:37;14.40;99.90
8178;DHT22;4130;48.740;9.132;2023-02-18T12:21:21;14.50;99.90
8178;DHT22;4130;48.740;9.132;2023-02-18T12:24:03;14.30;99.90
8178;DHT22;4130;48.740;9.132;2023-02-18T12:26:38;14.30;99.90
8178;DHT22;4130;48.740;9.132;2023-02-18T12:29:26;14.30;99.90
8178;DHT22;4130;48.740;9.132;2023-02-18T12:32:22;14.40;99.90
8178;DHT22;4130;48.740;9.132;2023-02-18T12:37:56;14.40;99.90
8178;DHT22;4130;48.740;9.132;2023-02-18T12:40:58;14.50;99.90
8178;DHT22;4130;48.740;9.132;2023-02-18T12:43:39;14.60;99.90
8178;DHT22;4130;48.740;9.132;2023-02-18T12:46:42;14.60;99.90
8178;DHT22;4130;48.740;9.132;2023-02-18T12:52:41;14.50;99.90
8178;DHT22;4130;48.740;9.132;2023-02-18T12:55:46;14.40;99.90
8178;DHT22;4130;48.740;9.132;2023-02-18T13:02:07;14.40;99.90
8178;DHT22;4130;48.740;9.132;2023-02-18T13:04:53;14.40;99.90
8178;DHT22;4130;48.740;9.132;2023-02-18T13:07:32;14.40;99.90
8178;DHT22;4130;48.740;9.132;2023-02-18T13:13:56;14.40;99.90
8178;DHT22;4130;48.740;9.132;2023-02-18T13:19:53;14.40;99.90
8178;DHT22;4130;48.740;9.132;2023-02-18T13:22:24;14.30;99.90
8178;DHT22;4130;48.740;9.132;2023-02-18T13:24:56;14.20;99.90
8178;DHT22;4130;48.740;9.132;2023-02-18T13:27:28;14.00;99.90
8178;DHT22;4130;48.740;9.132;2023-02-18T13:30:18;13.90;99.90
8178;DHT22;4130;48.740;9.132;2023-02-18T13:33:02;13.80;99.90
8178;DHT22;4130;48.740;9.132;2023-02-18T13:35:45;13.80;99.90
8178;DHT22;4130;48.740;9.132;2023-02-18T13:38:55;13.90;99.90
8178;DHT22;4130;48.740;9.132;2023-02-18T13:41:27;14.00;99.90
8178;DHT22;4130;48.740;9.132;2023-02-18T13:43:58;14.00;99.90
8178;DHT22;4130;48.740;9.132;2023-02-18T13:46:27;14.20;99.90
8178;DHT22;4130;48.740;9.132;2023-02-18T13:49:06;14.20;99.90
8178;DHT22;4130;48.740;9.132;2023-02-18T13:51:39;14.30;99.90
8178;DHT22;4130;48.740;9.132;2023-02-18T13:54:18;14.20;99.90
8178;DHT22;4130;48.740;9.132;2023-02-18T13:56:50;14.10;99.90
8178;DHT22;4130;48.740;9.132;2023-02-18T13:59:22;14.00;99.90
8178;DHT22;4130;48.740;9.132;2023-02-18T14:01:51;13.80;99.90
8178;DHT22;4130;48.740;9.132;2023-02-18T14:04:52;13.80;99.90
8178;DHT22;4130;48.740;9.132;2023-02-18T14:07:45;13.80;99.90
8178;DHT22;4130;48.740;9.132;2023-02-18T14:10:30;13.80;99.90
8178;DHT22;4130;48.740;9.132;2023-02-18T14:13:23;13.80;99.90
8178;DHT22;4130;48.740;9.132;2023-02-18T14:16:00;13.80;99.90
8178;DHT22;4130;48.740;9.132;2023-02-18T14:18:33;13.80;99.90
8178;DHT22;4130;48.740;9.132;2023-02-18T14:21:34;13.80;99.90
8178;DHT22;4130;48.740;9.132;2023-02-18T14:24:05;13.70;99.90
8178;DHT22;4130;48.740;9.132;2023-02-18T14:26:38;13.70;99.90
8178;DHT22;4130;48.740;9.132;2023-02-18T14:29:10;13.70;99.90
8178;DHT22;4130;48.740;9.132;2023-02-18T14:35:00;13.90;99.90
8178;DHT22;4130;48.740;9.132;2023-02-18T14:38:05;14.10;99.90
8178;DHT22;4130;48.740;9.132;2023-02-18T14:41:11;14.10;99.90
8178;DHT22;4130;48.740;9.132;2023-02-18T14:44:19;14.00;99.90
8178;DHT22;4130;48.740;9.132;2023-02-18T14:47:03;14.00;99.90
8178;DHT22;4130;48.740;9.132;2023-02-18T14:49:38;13.80;99.90
8178;DHT22;4130;48.740;9.132;2023-02-18T14:52:14;13.80;99.90
8178;DHT22;4130;48.740;9.132;2023-02-18T14:54:46;13.80;99.90
8178;DHT22;4130;48.740;9.132;2023-02-18T14:57:17;13.80;99.90
8178;DHT22;4130;48.740;9.132;2023-02-18T15:03:50;13.70;99.90
8178;DHT22;4130;48.740;9.132;2023-02-18T15:07:07;13.60;99.90
8178;DHT22;4130;48.740;9.132;2023-02-18T15:09:49;13.60;99.90
8178;DHT22;4130;48.740;9.132;2023-02-18T15:12:24;13.50;99.90
8178;DHT22;4130;48.740;9.132;2023-02-18T15:15:14;13.50;99.90
8178;DHT22;4130;48.740;9.132;2023-02-18T15:17:50;13.50;99.90
8178;DHT22;4130;48.740;9.132;2023-02-18T15:20:24;13.50;99.90
8178;DHT22;4130;48.740;9.132;2023-02-18T15:23:00;13.50;99.90
8178;DHT22;4130;48.740;9.132;2023-02-18T15:25:35;13.50;99.90
8178;DHT22;4130;48.740;9.132;2023-02-18T15:28:23;13.40;99.90
8178;DHT22;4130;48.740;9.132;2023-02-18T15:30:52;13.40;99.90
8178;DHT22;4130;48.740;9.132;2023-02-18T15:33:21;13.40;99.90
8178;DHT22;4130;48.740;9.132;2023-02-18T15:35:50;13.40;99.90
8178;DHT22;4130;48.740;9.132;2023-02-18T15:38:38;13.40;99.90
8178;DHT22;4130;48.740;9.132;2023-02-18T15:41:21;13.40;99.90
8178;DHT22;4130;48.740;9.132;2023-02-18T15:43:56;13.30;99.90
8178;DHT22;4130;48.740;9.132;2023-02-18T15:46:27;13.30;99.90
8178;DHT22;4130;48.740;9.132;2023-02-18T15:48:55;13.30;99.90
8178;DHT22;4130;48.740;9.132;2023-02-18T15:51:27;13.20;99.90
8178;DHT22;4130;48.740;9.132;2023-02-18T15:54:26;13.20;99.90
8178;DHT22;4130;48.740;9.132;2023-02-18T15:57:39;13.20;99.90
8178;DHT22;4130;48.740;9.132;2023-02-18T16:00:28;13.20;99.90
8178;DHT22;4130;48.740;9.132;2023-02-18T16:03:19;13.20;99.90
8178;DHT22;4130;48.740;9.132;2023-02-18T16:06:08;13.10;99.90
8178;DHT22;4130;48.740;9.132;2023-02-18T16:09:34;13.00;99.90
8178;DHT22;4130;48.740;9.132;2023-02-18T16:12:21;12.90;99.90
8178;DHT22;4130;48.740;9.132;2023-02-18T16:14:57;12.80;99.90
8178;DHT22;4130;48.740;9.132;2023-02-18T16:17:34;12.70;99.90
8178;DHT22;4130;48.740;9.132;2023-02-18T16:20:15;12.70;99.90
8178;DHT22;4130;48.740;9.132;2023-02-18T16:22:58;12.70;99.90
8178;DHT22;4130;48.740;9.132;2023-02-18T16:25:43;12.70;99.90
8178;DHT22;4130;48.740;9.132;2023-02-18T16:28:21;12.60;99.90
8178;DHT22;4130;48.740;9.132;2023-02-18T16:31:08;12.60;99.90
8178;DHT22;4130;48.740;9.132;2023-02-18T16:33:58;12.50;99.90
8178;DHT22;4130;48.740;9.132;2023-02-18T16:36:35;12.40;99.90
8178;DHT22;4130;48.740;9.132;2023-02-18T16:39:05;12.30;99.90
8178;DHT22;4130;48.740;9.132;2023-02-18T16:41:41;12.20;99.90
8178;DHT22;4130;48.740;9.132;2023-02-18T16:44:16;12.20;99.90
8178;DHT22;4130;48.740;9.132;2023-02-18T16:46:46;12.10;99.90
8178;DHT22;4130;48.740;9.132;2023-02-18T16:49:19;12.10;99.90
8178;DHT22;4130;48.740;9.132;2023-02-18T16:52:06;12.00;99.90
8178;DHT22;4130;48.740;9.132;2023-02-18T16:54:49;12.00;99.90
8178;DHT22;4130;48.740;9.132;2023-02-18T16:57:31;11.90;99.90
8178;DHT22;4130;48.740;9.132;2023-02-18T17:03:48;11.90;99.90
8178;DHT22;4130;48.740;9.132;2023-02-18T17:06:37;11.90;99.90
8178;DHT22;4130;48.740;9.132;2023-02-18T17:52:54;12.10;99.90
8178;DHT22;4130;48.740;9.132;2023-02-18T17:55:28;12.10;99.90
8178;DHT22;4130;48.740;9.132;2023-02-18T17:59:03;12.00;99.90
8178;DHT22;4130;48.740;9.132;2023-02-18T18:01:58;11.90;99.90
8178;DHT22;4130;48.740;9.132;2023-02-18T18:05:18;11.90;99.90